Time;durP1;ratioP1;P1;durP2;ratioP2;P2;SDS_P1;SDS_P2;PMS_P1;PMS_P2;Temp;Humidity;BMP_temperature;BMP_pressure;BME280_temperature;BME280_humidity;BME280_pressure;Samples;Min_cycle;Max_cycle;Signal;HPM_P1;HPM_P2
2022/08/17 00:02:17;;;;;;;5.15;3.65;;;;;;;26.85;55.79;100632.50;5054838;28;20040;-72
2022/08/17 00:04:54;;;;;;;7.70;3.88;;;;;;;26.85;55.46;100628.94;5035396;28;20060;-72
2022/08/17 00:07:22;;;;;;;4.60;3.80;;;;;;;26.87;56.08;100635.03;5034329;28;20046;-72
2022/08/17 00:09:49;;;;;;;5.00;3.80;;;;;;;26.86;55.93;100636.91;5047258;28;20400;-71
2022/08/17 00:12:16;;;;;;;6.03;3.80;;;;;;;26.88;55.92;100631.28;5055091;28;20041;-72
2022/08/17 00:15:05;;;;;;;5.85;4.35;;;;;;;26.89;55.81;100630.25;5055052;28;20052;-72
2022/08/17 00:17:36;;;;;;;;;;;;;;;26.91;55.64;100636.34;5055456;28;20045;-71
2022/08/17 00:20:05;;;;;;;5.30;3.55;;;;;;;26.91;55.49;100635.53;5055212;28;19925;-72
2022/08/17 00:22:32;;;;;;;6.93;3.72;;;;;;;26.92;55.56;100637.19;5054824;28;20350;-72
2022/08/17 00:25:15;;;;;;;5.82;3.70;;;;;;;26.92;55.93;100638.03;5053895;28;20052;-72
2022/08/17 00:27:43;;;;;;;7.35;4.18;;;;;;;26.94;55.82;100643.28;5055129;28;20052;-72
2022/08/17 00:30:11;;;;;;;6.00;3.78;;;;;;;26.94;55.39;100636.00;5055034;28;20045;-72
2022/08/17 00:32:44;;;;;;;7.20;4.18;;;;;;;26.95;55.81;100634.97;5054605;28;20045;-71
2022/08/17 00:35:32;;;;;;;5.72;3.72;;;;;;;26.94;55.95;100627.84;5055083;28;20037;-72
2022/08/17 00:38:00;;;;;;;6.38;4.53;;;;;;;26.96;56.06;100619.50;5054588;28;20504;-72
2022/08/17 00:40:27;;;;;;;5.05;4.20;;;;;;;26.97;56.01;100627.44;5054416;28;20052;-72
2022/08/17 00:43:16;;;;;;;8.95;4.18;;;;;;;26.97;56.21;100618.47;5054431;28;20060;-72
2022/08/17 00:45:44;;;;;;;6.47;4.15;;;;;;;26.97;56.17;100622.00;5037481;28;20048;-72
2022/08/17 00:48:12;;;;;;;4.68;4.05;;;;;;;26.99;56.01;100635.44;5054276;28;20049;-72
2022/08/17 00:51:10;;;;;;;4.15;3.75;;;;;;;26.99;56.09;100633.56;5054359;28;20048;-72
2022/08/17 00:53:42;;;;;;;4.03;3.47;;;;;;;26.99;56.02;100628.13;5040047;28;20048;-72
2022/08/17 00:56:18;;;;;;;4.88;3.90;;;;;;;27.00;56.07;100635.22;5034443;28;20046;-72
2022/08/17 00:58:47;;;;;;;5.70;4.05;;;;;;;27.01;55.91;100631.47;5034274;28;20056;-72
2022/08/17 01:01:15;;;;;;;6.10;4.00;;;;;;;27.01;55.85;100625.19;5034396;28;20477;-71
2022/08/17 01:03:50;;;;;;;5.85;3.90;;;;;;;27.02;55.98;100624.16;5034416;28;20052;-72
2022/08/17 01:06:19;;;;;;;7.22;3.67;;;;;;;27.02;56.12;100633.19;5034191;28;20112;-72
2022/08/17 01:08:52;;;;;;;6.55;4.15;;;;;;;27.03;55.85;100639.47;5034165;28;20041;-72
2022/08/17 01:11:25;;;;;;;5.70;3.65;;;;;;;27.03;55.73;100639.47;5034673;28;20409;-72
2022/08/17 01:13:52;;;;;;;6.07;4.00;;;;;;;27.03;55.83;100640.28;5033905;28;20049;-72
2022/08/17 01:16:27;;;;;;;7.68;4.40;;;;;;;27.04;55.78;100643.84;5033792;28;20041;-72
2022/08/17 01:19:04;;;;;;;6.43;4.13;;;;;;;27.04;55.87;100632.97;5033862;28;20049;-72
2022/08/17 01:21:45;;;;;;;6.22;4.55;;;;;;;27.04;55.61;100641.97;5034023;28;20045;-72
2022/08/17 01:24:13;;;;;;;7.03;4.03;;;;;;;27.04;55.63;100632.97;5032777;28;20489;-72
2022/08/17 01:26:42;;;;;;;6.18;3.65;;;;;;;27.05;55.89;100642.81;5032699;28;20398;-72
2022/08/17 01:29:11;;;;;;;7.18;3.60;;;;;;;27.05;55.84;100635.50;5033573;28;20045;-72
2022/08/17 01:31:44;;;;;;;5.50;3.90;;;;;;;27.04;55.46;100636.53;5039224;28;20052;-72
2022/08/17 01:34:14;;;;;;;5.18;3.50;;;;;;;27.05;55.72;100643.66;5053575;28;20064;-71
2022/08/17 01:36:44;;;;;;;5.85;4.43;;;;;;;27.06;55.42;100642.66;5053356;28;20048;-72
2022/08/17 01:39:31;;;;;;;6.40;4.43;;;;;;;27.06;55.66;100628.19;5052759;28;20052;-71
2022/08/17 01:42:32;;;;;;;5.05;4.50;;;;;;;27.06;55.56;100639.94;5052220;28;20060;-72
2022/08/17 01:45:10;;;;;;;5.75;4.25;;;;;;;27.08;55.50;100642.44;5053436;28;20045;-72
2022/08/17 01:47:37;;;;;;;6.32;4.13;;;;;;;27.08;55.54;100642.44;5053651;28;20049;-72
2022/08/17 01:50:10;;;;;;;7.30;4.07;;;;;;;27.08;55.59;100637.00;5052336;28;20049;-71
2022/08/17 01:52:38;;;;;;;5.97;4.38;;;;;;;27.08;55.33;100635.13;5053331;28;20041;-72
2022/08/17 01:55:07;;;;;;;6.53;4.03;;;;;;;27.09;55.64;100639.53;5035387;28;20046;-71
2022/08/17 01:57:35;;;;;;;7.25;4.03;;;;;;;27.09;55.29;100634.09;5033427;28;20045;-72
2022/08/17 02:00:08;;;;;;;6.20;4.03;;;;;;;27.09;55.38;100644.97;5033277;28;20052;-71
2022/08/17 02:02:37;;;;;;;7.50;4.32;;;;;;;27.10;55.23;100641.28;5040220;28;20045;-71
2022/08/17 02:05:05;;;;;;;4.72;3.92;;;;;;;27.10;55.18;100649.44;5033127;28;20408;-72
2022/08/17 02:07:35;;;;;;;5.90;3.83;;;;;;;27.10;55.35;100649.44;5033217;28;20674;-72
2022/08/17 02:10:22;;;;;;;5.03;3.92;;;;;;;27.11;55.37;100655.69;5044767;28;20484;-72
2022/08/17 02:13:02;;;;;;;5.13;3.92;;;;;;;27.11;55.27;100667.41;5053214;28;20413;-72
2022/08/17 02:15:29;;;;;;;4.53;3.78;;;;;;;27.10;55.36;100667.56;5052883;28;20045;-72
2022/08/17 02:17:57;;;;;;;6.45;3.80;;;;;;;27.11;55.35;100672.84;5053437;28;20476;-72
2022/08/17 02:20:24;;;;;;;5.07;4.07;;;;;;;27.10;55.04;100670.28;5052882;28;20048;-72
2022/08/17 02:23:11;;;;;;;6.00;3.97;;;;;;;27.12;54.90;100673.69;5052797;28;20052;-72
2022/08/17 02:25:42;;;;;;;5.30;3.78;;;;;;;27.11;55.00;100681.00;5051900;28;20053;-72
2022/08/17 02:28:10;;;;;;;4.90;3.67;;;;;;;27.11;55.17;100683.72;5053306;28;20041;-71
2022/08/17 02:30:37;;;;;;;5.13;3.75;;;;;;;27.13;55.13;100694.38;5054899;28;20385;-72
2022/08/17 02:33:24;;;;;;;6.00;3.55;;;;;;;27.13;54.97;100688.09;5057097;28;20045;-72
2022/08/17 02:36:11;;;;;;;5.57;3.38;;;;;;;27.13;54.73;100685.38;5056973;28;20045;-71
2022/08/17 02:38:40;;;;;;;6.05;4.13;;;;;;;27.13;54.69;100694.38;5057550;28;20041;-72
2022/08/17 02:41:07;;;;;;;7.53;3.85;;;;;;;27.12;54.58;100681.84;5056773;28;20056;-72
2022/08/17 02:43:35;;;;;;;4.75;4.05;;;;;;;27.13;54.61;100683.50;5056814;28;20076;-72
2022/08/17 02:46:02;;;;;;;5.40;4.50;;;;;;;27.13;54.63;100677.25;5056699;28;20045;-72
2022/08/17 02:48:30;;;;;;;5.32;3.97;;;;;;;27.13;54.77;100677.25;5056620;28;20045;-72
2022/08/17 02:50:59;;;;;;;6.78;4.43;;;;;;;27.11;54.39;100670.13;5056692;28;20064;-72
2022/08/17 02:53:27;;;;;;;4.50;4.03;;;;;;;27.14;54.48;100678.91;5056910;28;20049;-72
2022/08/17 02:56:02;;;;;;;5.60;4.32;;;;;;;27.13;54.53;100675.34;5038681;28;20041;-71
2022/08/17 02:58:30;;;;;;;7.97;4.20;;;;;;;27.13;54.18;100669.94;5036360;28;20041;-72
2022/08/17 03:01:06;;;;;;;6.30;4.43;;;;;;;27.14;54.10;100673.47;5036658;28;20068;-72
2022/08/17 03:03:35;;;;;;;7.93;4.32;;;;;;;27.15;54.11;100672.47;5036826;28;20073;-72
2022/08/17 03:06:03;;;;;;;4.72;3.65;;;;;;;27.15;54.08;100669.75;5036481;28;20382;-72
2022/08/17 03:08:30;;;;;;;3.97;3.58;;;;;;;27.15;54.08;100656.16;5036442;28;20045;-71
2022/08/17 03:10:58;;;;;;;6.85;4.38;;;;;;;27.15;54.01;100651.56;5036658;28;20072;-70
2022/08/17 03:13:26;;;;;;;4.65;4.05;;;;;;;27.15;53.59;100651.56;5036293;28;20038;-71
2022/08/17 03:15:53;;;;;;;7.80;4.13;;;;;;;27.16;53.87;100652.41;5036104;28;20056;-70
2022/08/17 03:18:22;;;;;;;4.72;3.90;;;;;;;27.16;53.49;100655.97;5036235;28;20033;-70
2022/08/17 03:20:55;;;;;;;5.05;3.92;;;;;;;27.14;53.64;100660.72;5036342;28;20042;-71
2022/08/17 03:23:23;;;;;;;9.15;4.15;;;;;;;27.16;52.52;100660.56;5036168;28;20053;-70
2022/08/17 03:25:52;;;;;;;6.10;4.07;;;;;;;27.15;52.13;100653.44;5036134;28;20474;-71
2022/08/17 03:28:20;;;;;;;5.97;4.22;;;;;;;27.15;52.09;100667.88;5035866;28;20052;-70
2022/08/17 03:30:49;;;;;;;6.25;4.20;;;;;;;27.15;51.90;100672.47;5036003;28;20508;-70
2022/08/17 03:33:18;;;;;;;5.88;4.20;;;;;;;27.12;51.41;100676.41;5049225;28;20400;-71
2022/08/17 03:35:49;;;;;;;6.45;4.20;;;;;;;27.10;51.54;100673.88;5055704;28;20049;-70
2022/08/17 03:38:17;;;;;;;7.68;4.03;;;;;;;27.13;51.86;100682.66;5055915;28;20053;-70
2022/08/17 03:40:45;;;;;;;4.78;3.95;;;;;;;27.10;51.43;100679.31;5055944;28;20060;-70
2022/08/17 03:43:27;;;;;;;6.63;5.10;;;;;;;27.10;51.20;100682.03;5055482;28;20060;-70
2022/08/17 03:57:30;;;;;;;5.93;4.82;;;;;;;27.08;50.77;100659.59;5052329;28;20064;-70
2022/08/17 03:59:58;;;;;;;9.48;4.45;;;;;;;27.07;50.73;100652.47;5054020;28;20064;-70
2022/08/17 04:02:28;;;;;;;7.72;5.07;;;;;;;27.07;50.57;100647.03;5053000;28;20408;-70
2022/08/17 04:04:57;;;;;;;7.07;4.28;;;;;;;27.07;50.84;100657.06;5035643;28;20053;-70
2022/08/17 04:07:28;;;;;;;7.15;4.45;;;;;;;27.07;50.29;100657.06;5035466;28;20052;-70
2022/08/17 04:09:58;;;;;;;5.65;4.25;;;;;;;27.07;50.28;100662.50;5037939;28;20045;-70
2022/08/17 04:12:29;;;;;;;5.50;4.15;;;;;;;27.07;49.90;100660.63;5055200;28;20045;-70
2022/08/17 04:14:57;;;;;;;5.60;4.03;;;;;;;27.06;50.00;100661.66;5055565;28;20057;-70
2022/08/17 04:17:27;;;;;;;6.47;4.53;;;;;;;27.06;49.95;100668.94;5055008;28;20044;-71
2022/08/17 04:19:55;;;;;;;7.43;4.90;;;;;;;27.06;50.29;100671.66;5054920;28;20045;-70
2022/08/17 04:22:23;;;;;;;5.57;4.63;;;;;;;27.06;50.27;100677.97;5054849;28;20052;-70
2022/08/17 04:25:04;;;;;;;6.40;4.15;;;;;;;27.06;50.17;100683.41;5053721;28;20060;-69
2022/08/17 04:27:31;;;;;;;5.22;4.57;;;;;;;27.06;49.71;100686.13;5054922;28;20041;-70
2022/08/17 04:29:59;;;;;;;6.32;4.57;;;;;;;27.06;49.33;100680.69;5054731;28;20071;-70
2022/08/17 04:32:26;;;;;;;8.27;5.22;;;;;;;27.07;49.65;100684.25;5054947;28;20053;-70
2022/08/17 04:35:25;;;;;;;7.38;4.47;;;;;;;27.06;49.38;100693.41;5054659;28;20051;-70
2022/08/17 04:37:52;;;;;;;5.18;4.55;;;;;;;27.06;49.30;100685.25;5054649;28;20041;-70
2022/08/17 04:43:10;;;;;;;7.05;4.47;;;;;;;27.07;49.39;100698.66;5053404;28;20083;-70
2022/08/17 04:45:43;;;;;;;7.65;4.57;;;;;;;27.06;49.22;100696.13;5054772;28;20060;-70
2022/08/17 04:48:25;;;;;;;8.20;4.35;;;;;;;27.04;48.88;100699.03;5054509;28;20045;-70
2022/08/17 04:51:03;;;;;;;5.95;4.38;;;;;;;27.05;49.08;100706.16;5054797;28;20056;-70
2022/08/17 04:53:31;;;;;;;6.45;4.00;;;;;;;27.05;48.71;100710.75;5052734;28;20049;-70
2022/08/17 04:55:58;;;;;;;5.38;3.97;;;;;;;27.05;48.29;100713.47;5054563;28;20512;-70
2022/08/17 04:58:25;;;;;;;6.38;4.45;;;;;;;27.04;48.22;100711.78;5033582;28;20485;-70
2022/08/17 05:00:53;;;;;;;6.20;4.40;;;;;;;27.03;48.25;100710.94;5033002;28;20057;-70
2022/08/17 05:03:20;;;;;;;8.00;4.72;;;;;;;27.03;48.57;100723.69;5065913;28;20056;-70
2022/08/17 05:05:48;;;;;;;7.82;4.70;;;;;;;27.04;47.93;100728.09;5034404;28;20053;-70
2022/08/17 05:08:18;;;;;;;6.15;5.03;;;;;;;27.03;47.92;100740.81;5034012;28;20068;-70
2022/08/17 05:10:47;;;;;;;8.55;6.93;;;;;;;27.01;48.11;100740.16;5033739;28;20046;-70
2022/08/17 05:13:17;;;;;;;6.10;5.45;;;;;;;27.02;48.42;100747.28;5034204;28;20045;-70
2022/08/17 05:15:47;;;;;;;7.40;6.60;;;;;;;27.02;48.59;100752.72;5034026;28;20431;-70
2022/08/17 05:18:16;;;;;;;8.85;5.95;;;;;;;27.03;48.32;100748.97;5033743;28;20037;-70
2022/08/17 05:20:44;;;;;;;7.28;5.10;;;;;;;27.03;48.68;100745.41;5034168;28;20045;-70
2022/08/17 05:23:14;;;;;;;6.78;5.68;;;;;;;27.03;48.94;100738.09;5033627;28;20049;-70
2022/08/17 05:25:47;;;;;;;8.48;4.88;;;;;;;27.04;48.64;100747.94;5034204;28;20052;-70
2022/08/17 05:28:18;;;;;;;10.90;5.35;;;;;;;27.04;48.62;100750.66;5033915;28;20041;-70
2022/08/17 05:30:56;;;;;;;6.50;5.18;;;;;;;27.04;48.54;100753.38;5033880;28;20052;-70
2022/08/17 05:33:35;;;;;;;6.30;5.18;;;;;;;27.04;48.59;100758.81;5038033;28;20053;-70
2022/08/17 05:36:09;;;;;;;9.70;4.75;;;;;;;27.03;48.89;100754.41;5052481;28;20052;-70
2022/08/17 05:38:57;;;;;;;6.68;4.53;;;;;;;27.04;49.09;100766.13;5053936;28;20044;-71
2022/08/17 05:41:24;;;;;;;5.82;5.00;;;;;;;27.04;49.14;100763.41;5053287;28;20408;-70
2022/08/17 05:43:52;;;;;;;6.97;4.68;;;;;;;27.03;49.09;100757.13;5053287;28;20064;-70
2022/08/17 05:46:26;;;;;;;7.32;5.55;;;;;;;27.03;49.26;100765.28;5053921;28;20519;-70
2022/08/17 05:49:00;;;;;;;6.50;4.88;;;;;;;27.04;49.32;100766.97;5053398;28;20048;-70
2022/08/17 05:51:46;;;;;;;7.28;4.47;;;;;;;27.04;49.31;100769.69;5053241;28;20045;-71
2022/08/17 05:54:33;;;;;;;7.35;4.68;;;;;;;27.05;49.63;100768.63;5052123;28;20044;-70
2022/08/17 05:57:18;;;;;;;7.57;5.35;;;;;;;27.04;49.52;100766.97;5053671;28;20045;-71
2022/08/17 06:00:12;;;;;;;7.10;5.03;;;;;;;27.05;49.96;100768.63;5050245;28;20052;-71
2022/08/17 06:02:46;;;;;;;7.85;5.55;;;;;;;27.06;50.72;100772.19;5033012;28;20037;-70
2022/08/17 06:05:52;;;;;;;7.95;5.70;;;;;;;27.04;51.17;100772.41;5032133;28;20041;-71
2022/08/17 06:08:36;;;;;;;15.57;7.55;;;;;;;27.00;52.03;100778.38;5033054;28;20405;-71
2022/08/17 06:11:30;;;;;;;9.50;7.35;;;;;;;26.97;52.65;100768.72;5038310;28;20376;-71
2022/08/17 06:14:29;;;;;;;8.45;7.22;;;;;;;26.97;53.24;100765.16;5053402;28;20052;-71
2022/08/17 06:17:05;;;;;;;12.38;8.20;;;;;;;26.95;54.62;100762.63;5053060;28;20045;-71
2022/08/17 06:19:48;;;;;;;13.15;9.60;;;;;;;26.92;55.93;100765.72;5052928;28;20041;-71
2022/08/17 06:22:19;;;;;;;13.07;9.23;;;;;;;26.92;56.51;100775.75;5053062;28;20492;-71
2022/08/17 06:24:56;;;;;;;13.50;9.77;;;;;;;26.89;56.91;100774.22;5053091;28;20052;-71
2022/08/17 06:27:47;;;;;;;12.52;9.23;;;;;;;26.88;57.51;100765.25;5051824;28;20048;-71
2022/08/17 06:30:27;;;;;;;15.77;9.38;;;;;;;26.88;57.60;100767.13;5052925;28;20041;-72
2022/08/17 06:33:04;;;;;;;19.77;11.52;;;;;;;26.85;58.26;100767.47;5053551;28;20045;-71
2022/08/17 06:36:01;;;;;;;14.38;11.18;;;;;;;26.83;58.55;100766.81;5053067;28;20045;-73
2022/08/17 06:38:46;;;;;;;14.60;11.23;;;;;;;26.79;59.12;100773.66;5053092;28;20041;-72
2022/08/17 06:41:23;;;;;;;16.38;10.75;;;;;;;26.76;59.25;100779.44;5053890;28;20107;-73
2022/08/17 06:44:02;;;;;;;15.88;11.75;;;;;;;26.76;59.76;100776.72;5051692;28;20489;-71
2022/08/17 06:46:36;;;;;;;17.60;10.00;;;;;;;26.74;59.51;100770.63;5053132;28;20048;-71
2022/08/17 06:49:24;;;;;;;16.27;10.75;;;;;;;26.75;59.83;100764.19;5053226;28;20048;-72
2022/08/17 06:52:06;;;;;;;16.45;10.77;;;;;;;26.74;60.37;100768.78;5051953;28;20400;-73
2022/08/17 06:54:45;;;;;;;14.73;10.50;;;;;;;26.74;60.45;100774.19;5053089;28;20041;-72
2022/08/17 06:57:27;;;;;;;13.77;10.98;;;;;;;26.74;60.47;100776.03;5051821;28;20061;-72
2022/08/17 07:00:19;;;;;;;16.13;10.40;;;;;;;26.74;60.72;100759.75;5036421;28;20389;-72
2022/08/17 07:02:54;;;;;;;13.63;10.68;;;;;;;26.75;60.75;100748.72;5032674;28;20519;-71
2022/08/17 07:05:25;;;;;;;15.45;11.00;;;;;;;26.74;60.68;100752.47;5032498;28;20062;-71
2022/08/17 07:08:32;;;;;;;14.48;10.63;;;;;;;26.74;60.61;100762.47;5032840;28;20045;-71
2022/08/17 07:11:09;;;;;;;18.88;11.10;;;;;;;26.74;60.37;100752.47;5032694;28;20481;-71
2022/08/17 07:13:47;;;;;;;16.35;11.00;;;;;;;26.73;60.44;100755.34;5031693;28;20104;-71
2022/08/17 07:16:26;;;;;;;19.63;12.13;;;;;;;26.71;60.40;100757.44;5034272;28;20397;-71
2022/08/17 07:18:55;;;;;;;17.73;12.63;;;;;;;26.69;60.63;100760.31;5035984;28;20037;-71
2022/08/17 07:21:53;;;;;;;16.52;12.07;;;;;;;26.68;60.59;100771.34;5036630;28;20049;-71
2022/08/17 07:24:51;;;;;;;18.58;13.05;;;;;;;26.65;61.00;100771.72;5033966;28;20408;-70
2022/08/17 07:27:22;;;;;;;15.32;12.45;;;;;;;26.59;61.13;100757.84;5035959;28;20038;-69
2022/08/17 07:30:00;;;;;;;15.00;11.27;;;;;;;26.55;61.08;100739.38;5035724;28;20053;-70
2022/08/17 07:32:56;;;;;;;17.85;11.35;;;;;;;26.57;60.73;100746.31;5036379;28;20060;-69
2022/08/17 07:35:40;;;;;;;17.80;11.40;;;;;;;26.61;60.93;100747.63;5048798;28;20063;-70
2022/08/17 07:38:20;;;;;;;16.17;12.02;;;;;;;26.63;61.31;100747.47;5055978;28;20049;-69
2022/08/17 07:41:01;;;;;;;15.38;12.05;;;;;;;26.62;61.68;100760.22;5054682;28;20045;-69
2022/08/17 07:43:35;;;;;;;18.42;11.10;;;;;;;26.59;61.63;100771.41;5055864;28;20053;-70
2022/08/17 07:49:08;;;;;;;15.90;12.27;;;;;;;26.56;61.81;100750.06;5055829;28;20044;-70
2022/08/17 07:51:38;;;;;;;16.83;11.90;;;;;;;26.56;61.91;100752.78;5055380;28;20049;-71
2022/08/17 07:54:14;;;;;;;17.80;11.10;;;;;;;26.57;61.93;100751.75;5055711;28;20052;-71
2022/08/17 07:56:47;;;;;;;18.25;10.93;;;;;;;26.59;61.96;100746.97;5054261;28;20068;-71
2022/08/17 07:59:17;;;;;;;14.48;10.38;;;;;;;26.61;61.74;100753.06;5053457;28;20051;-77
2022/08/17 08:02:05;;;;;;;16.40;10.60;;;;;;;26.63;61.60;100759.16;5034955;28;20041;-71
2022/08/17 08:04:33;;;;;;;17.60;10.65;;;;;;;26.67;62.26;100756.09;5035159;28;20056;-71
2022/08/17 08:07:20;;;;;;;14.27;11.15;;;;;;;26.69;62.52;100764.88;5034213;28;20050;-71
2022/08/17 08:10:03;;;;;;;17.55;12.15;;;;;;;26.70;62.60;100764.72;5035345;28;20037;-71
2022/08/17 08:12:45;;;;;;;22.92;12.85;;;;;;;26.72;62.48;100764.53;5043964;28;20052;-76
2022/08/17 08:15:24;;;;;;;20.37;12.50;;;;;;;26.74;63.17;100765.19;5055280;28;20049;-71
2022/08/17 08:17:58;;;;;;;15.15;11.48;;;;;;;26.75;63.07;100762.31;5054026;28;20045;-71
2022/08/17 08:20:38;;;;;;;12.57;10.32;;;;;;;26.78;63.20;100770.09;5055381;28;20484;-71
2022/08/17 08:23:28;;;;;;;13.93;10.18;;;;;;;26.79;62.50;100779.94;5055588;28;20045;-71
2022/08/17 08:26:17;;;;;;;15.75;10.63;;;;;;;26.82;62.54;100786.88;5055132;28;20045;-71
2022/08/17 08:29:12;;;;;;;14.38;10.38;;;;;;;26.85;63.07;100792.75;5054132;28;20397;-72
2022/08/17 08:31:46;;;;;;;14.07;10.98;;;;;;;26.87;62.63;100784.44;5052830;28;20045;-72
2022/08/17 08:34:52;;;;;;;18.40;10.43;;;;;;;26.89;61.79;100766.06;5054076;28;20049;-74
2022/08/17 08:38:13;;;;;;;15.27;10.07;;;;;;;26.95;62.30;100754.50;5053181;28;20057;-71
2022/08/17 08:40:59;;;;;;;12.48;9.48;;;;;;;26.98;61.22;100762.28;5048831;28;20056;-71
2022/08/17 08:43:45;;;;;;;10.13;8.85;;;;;;;27.01;61.42;100771.91;5054889;28;20064;-72
2022/08/17 08:46:45;;;;;;;17.08;10.73;;;;;;;27.02;62.86;100741.88;5054861;28;20054;-71
2022/08/17 08:49:46;;;;;;;18.83;10.50;;;;;;;27.02;63.56;100725.56;5037251;28;20056;-71
2022/08/17 08:52:50;;;;;;;13.48;9.25;;;;;;;27.03;63.15;100729.97;5053432;28;20060;-70
2022/08/17 08:55:40;;;;;;;13.35;9.95;;;;;;;27.04;63.14;100738.94;5054553;28;20049;-71
2022/08/17 08:58:28;;;;;;;12.68;10.65;;;;;;;27.04;63.54;100744.38;5054988;28;20056;-70
2022/08/17 09:01:17;;;;;;;12.32;9.30;;;;;;;27.05;62.92;100746.06;5044480;28;20038;-71
2022/08/17 09:03:53;;;;;;;15.35;10.73;;;;;;;27.06;62.65;100742.31;5033643;28;20068;-71
2022/08/17 09:07:00;;;;;;;15.75;9.80;;;;;;;27.08;63.11;100738.38;5033812;28;20053;-71
2022/08/17 09:09:34;;;;;;;16.52;10.35;;;;;;;27.08;63.17;100738.38;5034608;28;20057;-71
2022/08/17 09:12:33;;;;;;;13.68;10.55;;;;;;;27.10;62.86;100738.22;5034174;28;20053;-71
2022/08/17 09:15:26;;;;;;;12.15;9.40;;;;;;;27.10;62.44;100738.22;5034184;28;20049;-71
2022/08/17 09:18:14;;;;;;;16.98;10.48;;;;;;;27.12;62.50;100738.91;5032220;28;20457;-71
2022/08/17 09:21:13;;;;;;;14.65;9.50;;;;;;;27.11;61.94;100735.34;5015123;28;20053;-71
2022/08/17 09:24:13;;;;;;;11.98;9.20;;;;;;;27.13;61.68;100731.59;5032227;28;20061;-71
2022/08/17 09:26:59;;;;;;;14.27;9.23;;;;;;;27.14;61.17;100727.84;5028783;28;20064;-71
2022/08/17 09:29:33;;;;;;;11.70;9.00;;;;;;;27.15;61.41;100724.94;5015198;28;20053;-71
2022/08/17 09:32:13;;;;;;;12.95;9.57;;;;;;;27.17;60.62;100728.31;5031736;28;20057;-71
2022/08/17 09:34:50;;;;;;;11.13;8.27;;;;;;;27.18;60.34;100726.44;5031535;28;20049;-71
2022/08/17 09:37:59;;;;;;;9.95;7.75;;;;;;;27.19;59.96;100731.69;5018052;28;20075;-71
2022/08/17 09:40:42;;;;;;;15.38;8.38;;;;;;;27.20;59.92;100736.09;5050924;28;20397;-71
2022/08/17 09:43:38;;;;;;;9.30;7.22;;;;;;;27.21;59.51;100726.91;5051427;28;20191;-71
2022/08/17 09:46:18;;;;;;;9.68;7.60;;;;;;;27.22;59.16;100728.59;4953645;29;20451;-70
2022/08/17 09:48:49;;;;;;;9.40;7.65;;;;;;;27.24;59.05;100744.72;4953447;29;20055;-73
2022/08/17 09:51:29;;;;;;;12.13;7.18;;;;;;;27.23;58.88;100751.19;4953025;29;20066;-70
2022/08/17 09:53:57;;;;;;;12.48;7.85;;;;;;;27.26;58.19;100754.34;4952592;29;20527;-70
2022/08/17 09:57:04;;;;;;;11.48;7.60;;;;;;;27.26;57.76;100735.34;4953040;29;20077;-70
2022/08/17 10:00:14;;;;;;;11.30;6.90;;;;;;;27.28;57.70;100738.72;4939844;29;20051;-72
2022/08/17 10:03:01;;;;;;;11.15;7.25;;;;;;;27.33;57.63;100736.28;4964945;28;20502;-71
2022/08/17 10:05:55;;;;;;;12.90;7.85;;;;;;;27.38;57.72;100749.31;4972586;28;20051;-71
2022/08/17 10:08:35;;;;;;;11.10;7.30;;;;;;;27.39;57.50;100736.56;4989059;28;20066;-76
2022/08/17 10:11:15;;;;;;;11.25;7.55;;;;;;;27.40;57.62;100746.41;4972010;28;20050;-71
2022/08/17 10:14:08;;;;;;;8.75;7.18;;;;;;;27.40;57.75;100749.13;4988187;28;20264;-71
2022/08/17 10:17:14;;;;;;;8.80;7.07;;;;;;;27.40;57.38;100749.97;4972552;28;20103;-71
2022/08/17 10:20:34;;;;;;;10.95;6.93;;;;;;;27.41;57.29;100734.50;4972688;28;20050;-71
2022/08/17 10:26:14;;;;;;;8.80;6.90;;;;;;;27.40;57.37;100741.81;4972226;28;20063;-71
2022/08/17 10:29:08;;;;;;;9.13;6.38;;;;;;;27.41;57.20;100735.34;4972291;28;20174;-71
2022/08/17 10:31:50;;;;;;;6.85;6.15;;;;;;;27.41;57.47;100746.22;4956244;28;20405;-71
2022/08/17 10:34:29;;;;;;;9.38;6.05;;;;;;;27.41;57.47;100751.66;4972555;28;20170;-71
2022/08/17 10:43:40;;;;;;;12.27;7.22;;;;;;;27.44;57.86;100739.59;4842042;27;8358135;-71
2022/08/17 11:04:58;;;;;;;13.15;7.70;;;;;;;27.64;55.84;100710.78;5130733;27;20381;-72
2022/08/17 11:08:04;;;;;;;12.35;8.02;;;;;;;27.65;55.84;100709.72;5131566;28;20043;-71
2022/08/17 11:10:55;;;;;;;11.68;7.47;;;;;;;27.68;55.63;100713.97;5131239;28;20414;-72
2022/08/17 11:13:28;;;;;;;12.70;7.70;;;;;;;27.72;55.55;100710.66;5110365;28;20035;-71
2022/08/17 11:16:07;;;;;;;12.80;6.78;;;;;;;27.73;54.82;100714.22;5110994;28;20039;-72
2022/08/17 11:18:44;;;;;;;13.13;6.15;;;;;;;27.74;54.96;100714.06;5091501;28;20055;-72
2022/08/17 11:21:59;;;;;;;10.38;6.45;;;;;;;27.76;54.92;100711.16;5110528;28;20044;-72
2022/08/17 11:24:29;;;;;;;7.75;6.18;;;;;;;27.76;55.11;100712.00;5110573;28;20048;-72
2022/08/17 11:27:15;;;;;;;13.75;6.53;;;;;;;27.78;56.57;100703.66;5091980;28;20063;-71
2022/08/17 11:29:51;;;;;;;13.23;6.45;;;;;;;27.79;56.97;100699.88;5093052;28;20050;-71
2022/08/17 11:32:43;;;;;;;15.93;7.20;;;;;;;27.81;54.79;100715.00;5110212;28;20115;-71
2022/08/17 11:35:42;;;;;;;11.15;6.30;;;;;;;27.84;54.55;100714.63;5093105;28;20044;-72
2022/08/17 11:38:35;;;;;;;10.57;6.32;;;;;;;27.85;54.11;100707.28;5090143;28;20048;-71
2022/08/17 11:41:32;;;;;;;11.65;6.60;;;;;;;27.88;53.82;100696.03;5089729;28;20044;-72
2022/08/17 11:44:21;;;;;;;10.13;6.53;;;;;;;27.90;53.02;100702.13;5089089;28;20051;-72
2022/08/17 11:52:54;;;;;;;13.38;7.80;;;;;;;27.89;53.74;100695.00;5089172;28;20052;-72
2022/08/17 11:55:27;;;;;;;9.25;6.60;;;;;;;27.87;53.85;100699.75;5089534;28;20040;-72
2022/08/17 11:58:16;;;;;;;10.90;5.97;;;;;;;27.84;52.34;100687.41;5076487;28;20059;-72
2022/08/17 12:00:44;;;;;;;11.48;6.68;;;;;;;27.84;52.04;100681.13;5089134;28;20047;-72
2022/08/17 12:03:21;;;;;;;9.18;6.13;;;;;;;27.84;52.05;100683.84;5097458;28;20055;-72
2022/08/17 12:05:52;;;;;;;11.23;6.43;;;;;;;27.85;52.33;100674.66;5094942;28;20059;-72
2022/08/17 12:08:21;;;;;;;11.65;6.32;;;;;;;27.85;51.65;100661.88;5096325;28;20056;-72
2022/08/17 12:11:17;;;;;;;8.88;6.03;;;;;;;27.87;51.96;100656.25;5095660;28;20043;-72
2022/08/17 12:14:07;;;;;;;8.95;6.53;;;;;;;27.85;52.19;100661.03;5111285;28;20047;-73
2022/08/17 12:16:41;;;;;;;11.55;6.50;;;;;;;27.83;52.61;100650.38;5114055;28;20059;-73
2022/08/17 12:19:19;;;;;;;7.45;5.85;;;;;;;27.84;52.56;100651.22;5116307;28;20071;-73
2022/08/17 12:22:15;;;;;;;8.27;5.70;;;;;;;27.83;53.10;100665.81;5115901;28;20042;-72
2022/08/17 12:25:01;;;;;;;9.07;5.97;;;;;;;27.82;54.06;100659.53;5115789;28;20047;-73
2022/08/17 12:27:32;;;;;;;10.35;6.68;;;;;;;27.82;54.16;100669.59;5115746;28;20050;-72
2022/08/17 12:30:21;;;;;;;10.88;5.97;;;;;;;27.80;54.21;100674.38;5116029;28;20445;-72
2022/08/17 12:32:48;;;;;;;8.27;5.40;;;;;;;27.80;54.33;100679.84;5116208;28;20054;-72
2022/08/17 12:35:28;;;;;;;7.55;5.80;;;;;;;27.79;54.22;100672.69;5115611;28;20394;-71
2022/08/17 12:37:56;;;;;;;8.48;6.10;;;;;;;27.79;54.27;100683.56;5114686;28;20043;-70
2022/08/17 12:40:27;;;;;;;8.55;5.85;;;;;;;27.79;53.66;100680.84;5115395;28;20044;-70
2022/08/17 12:43:31;;;;;;;8.55;6.03;;;;;;;27.78;54.30;100676.44;5091567;28;20067;-72
2022/08/17 12:46:00;;;;;;;9.25;5.40;;;;;;;27.78;53.76;100682.72;5095221;28;20048;-71
2022/08/17 12:48:41;;;;;;;10.63;6.53;;;;;;;27.79;54.29;100675.41;5095151;28;20055;-72
2022/08/17 12:51:27;;;;;;;10.18;5.47;;;;;;;27.78;55.11;100674.56;5095314;28;20048;-71
2022/08/17 12:53:55;;;;;;;9.02;6.35;;;;;;;27.67;52.64;100687.78;5095138;28;20044;-71
2022/08/17 12:56:23;;;;;;;6.57;5.53;;;;;;;27.46;50.92;100688.56;5093498;28;20483;-72
2022/08/17 12:58:54;;;;;;;10.98;6.68;;;;;;;27.29;50.47;100682.47;5095193;28;20054;-72
2022/08/17 13:01:23;;;;;;;;;;;;;;;27.13;50.07;100675.34;5095293;28;20406;-72
2022/08/17 13:03:53;;;;;;;8.13;5.40;;;;;;;27.02;49.78;100678.50;5094549;28;19931;-71
2022/08/17 13:06:34;;;;;;;11.40;6.20;;;;;;;26.92;49.15;100680.66;5093824;28;20044;-72